Terminal Aerodrome Forecast
Issued by NWS

Home | Current Version | Previous Version | Graphics & Text | Print | Product List | Glossary On
Versions: 1 2 3 4 5 6 7 8 9 10 11 12 13 14 15 16 17 18 19 20 21 22
000
FTUS43 KGRB 192300
TAFAUW
TAF
KAUW 192331Z 2000/2024 28012G19KT P6SM -SN BKN050 BKN080
      TEMPO 2000/2004 4SM -SHSN BKN030
     FM200700 29011KT P6SM SCT050 SCT080
     FM201600 29012G20KT P6SM SCT035 BKN050=

USA.gov is the U.S. government's official web portal to all federal, state and local government web resources and services.